sensor_id;sensor_type;location;lat;lon;timestamp;pressure;altitude;pressure_sealevel;temperature;humidity
70437;BME280;57877;39.750;-104.894;2023-02-28T00:02:07;82709.99;;;10.31;13.18
70437;BME280;57877;39.750;-104.894;2023-02-28T00:04:32;82713.79;;;10.70;13.32
70437;BME280;57877;39.750;-104.894;2023-02-28T00:06:57;82720.17;;;10.23;13.23
70437;BME280;57877;39.750;-104.894;2023-02-28T00:09:22;82716.75;;;9.82;13.42
70437;BME280;57877;39.750;-104.894;2023-02-28T00:11:47;82715.06;;;9.89;13.46
70437;BME280;57877;39.750;-104.894;2023-02-28T00:14:12;82710.66;;;9.83;13.53
70437;BME280;57877;39.750;-104.894;2023-02-28T00:16:39;82710.09;;;10.03;13.43
70437;BME280;57877;39.750;-104.894;2023-02-28T00:19:04;82712.06;;;9.64;13.49
70437;BME280;57877;39.750;-104.894;2023-02-28T00:21:29;82719.33;;;9.70;13.76
70437;BME280;57877;39.750;-104.894;2023-02-28T00:23:53;82721.22;;;10.06;13.32
70437;BME280;57877;39.750;-104.894;2023-02-28T00:28:44;82723.44;;;10.31;13.40
70437;BME280;57877;39.750;-104.894;2023-02-28T00:33:34;82731.88;;;8.94;14.14
70437;BME280;57877;39.750;-104.894;2023-02-28T00:36:04;82731.90;;;9.53;14.41
70437;BME280;57877;39.750;-104.894;2023-02-28T00:38:24;82736.56;;;8.69;14.64
70437;BME280;57877;39.750;-104.894;2023-02-28T00:40:49;82741.53;;;8.51;14.76
70437;BME280;57877;39.750;-104.894;2023-02-28T00:43:14;82747.19;;;8.88;14.59
70437;BME280;57877;39.750;-104.894;2023-02-28T00:45:39;82751.82;;;8.57;14.95
70437;BME280;57877;39.750;-104.894;2023-02-28T00:48:04;82747.82;;;7.82;15.41
70437;BME280;57877;39.750;-104.894;2023-02-28T00:50:29;82751.23;;;7.39;16.04
70437;BME280;57877;39.750;-104.894;2023-02-28T00:52:54;82747.49;;;7.20;16.79
70437;BME280;57877;39.750;-104.894;2023-02-28T00:55:19;82752.76;;;7.33;16.65
70437;BME280;57877;39.750;-104.894;2023-02-28T00:57:44;82762.32;;;6.80;17.43
70437;BME280;57877;39.750;-104.894;2023-02-28T01:00:10;82764.27;;;6.63;17.55
70437;BME280;57877;39.750;-104.894;2023-02-28T01:02:34;82772.16;;;7.34;17.22
70437;BME280;57877;39.750;-104.894;2023-02-28T01:04:59;82775.63;;;6.54;17.53
70437;BME280;57877;39.750;-104.894;2023-02-28T01:07:24;82779.92;;;6.58;18.15
70437;BME280;57877;39.750;-104.894;2023-02-28T01:09:49;82781.37;;;6.25;19.04
70437;BME280;57877;39.750;-104.894;2023-02-28T01:12:15;82786.50;;;6.36;19.46
70437;BME280;57877;39.750;-104.894;2023-02-28T01:14:40;82796.35;;;6.76;19.51
70437;BME280;57877;39.750;-104.894;2023-02-28T01:17:04;82803.65;;;5.61;21.42
70437;BME280;57877;39.750;-104.894;2023-02-28T01:19:29;82803.36;;;5.50;22.08
70437;BME280;57877;39.750;-104.894;2023-02-28T01:21:55;82804.11;;;5.74;22.28
70437;BME280;57877;39.750;-104.894;2023-02-28T01:24:20;82813.45;;;5.77;22.56
70437;BME280;57877;39.750;-104.894;2023-02-28T01:26:45;82813.83;;;5.90;22.66
70437;BME280;57877;39.750;-104.894;2023-02-28T01:31:39;82822.27;;;5.19;23.29
70437;BME280;57877;39.750;-104.894;2023-02-28T01:34:00;82825.56;;;5.11;23.76
70437;BME280;57877;39.750;-104.894;2023-02-28T01:36:26;82826.56;;;5.33;23.53
70437;BME280;57877;39.750;-104.894;2023-02-28T01:38:50;82828.91;;;4.98;23.49
70437;BME280;57877;39.750;-104.894;2023-02-28T01:41:17;82829.51;;;5.34;23.29
70437;BME280;57877;39.750;-104.894;2023-02-28T01:46:05;82827.26;;;3.89;24.57
70437;BME280;57877;39.750;-104.894;2023-02-28T01:48:32;82825.59;;;4.55;24.41
70437;BME280;57877;39.750;-104.894;2023-02-28T01:50:57;82826.48;;;4.70;24.32
70437;BME280;57877;39.750;-104.894;2023-02-28T01:53:26;82830.77;;;4.43;24.26
70437;BME280;57877;39.750;-104.894;2023-02-28T01:55:48;82830.60;;;4.64;24.15
70437;BME280;57877;39.750;-104.894;2023-02-28T01:58:10;82825.91;;;4.50;24.16
70437;BME280;57877;39.750;-104.894;2023-02-28T02:00:35;82819.58;;;4.33;24.73
70437;BME280;57877;39.750;-104.894;2023-02-28T02:03:06;82817.15;;;3.69;25.14
70437;BME280;57877;39.750;-104.894;2023-02-28T02:07:54;82807.14;;;3.80;25.40
70437;BME280;57877;39.750;-104.894;2023-02-28T02:10:17;82803.41;;;3.81;25.16
70437;BME280;57877;39.750;-104.894;2023-02-28T02:12:54;82801.80;;;3.74;25.01
70437;BME280;57877;39.750;-104.894;2023-02-28T02:15:09;82804.34;;;4.45;24.56
70437;BME280;57877;39.750;-104.894;2023-02-28T02:17:35;82803.84;;;4.63;24.48
70437;BME280;57877;39.750;-104.894;2023-02-28T02:27:17;82809.91;;;4.68;24.54
70437;BME280;57877;39.750;-104.894;2023-02-28T02:34:34;82814.82;;;5.26;23.29
70437;BME280;57877;39.750;-104.894;2023-02-28T02:36:56;82819.68;;;4.70;23.53
70437;BME280;57877;39.750;-104.894;2023-02-28T02:39:22;82823.58;;;4.55;24.02
70437;BME280;57877;39.750;-104.894;2023-02-28T02:41:46;82827.43;;;4.55;24.16
70437;BME280;57877;39.750;-104.894;2023-02-28T02:44:12;82825.84;;;5.02;23.64
70437;BME280;57877;39.750;-104.894;2023-02-28T02:46:35;82824.54;;;4.95;23.69
70437;BME280;57877;39.750;-104.894;2023-02-28T02:48:58;82821.26;;;4.80;23.37
70437;BME280;57877;39.750;-104.894;2023-02-28T02:51:23;82825.47;;;5.19;22.86
70437;BME280;57877;39.750;-104.894;2023-02-28T02:53:49;82828.64;;;5.25;22.64
70437;BME280;57877;39.750;-104.894;2023-02-28T02:56:14;82834.21;;;5.24;22.64
70437;BME280;57877;39.750;-104.894;2023-02-28T02:58:41;82834.58;;;5.04;22.47
70437;BME280;57877;39.750;-104.894;2023-02-28T03:03:28;82838.70;;;5.48;22.55
70437;BME280;57877;39.750;-104.894;2023-02-28T03:05:53;82837.40;;;5.36;22.70
70437;BME280;57877;39.750;-104.894;2023-02-28T03:08:18;82836.34;;;5.32;22.79
70437;BME280;57877;39.750;-104.894;2023-02-28T03:10:44;82834.74;;;5.01;23.14
70437;BME280;57877;39.750;-104.894;2023-02-28T03:15:37;82837.16;;;4.57;23.76
70437;BME280;57877;39.750;-104.894;2023-02-28T03:20:33;82840.54;;;4.66;23.43
70437;BME280;57877;39.750;-104.894;2023-02-28T03:22:53;82842.92;;;4.97;23.38
70437;BME280;57877;39.750;-104.894;2023-02-28T03:25:18;82842.53;;;4.95;23.41
70437;BME280;57877;39.750;-104.894;2023-02-28T03:27:41;82842.44;;;4.40;24.36
70437;BME280;57877;39.750;-104.894;2023-02-28T03:32:33;82844.12;;;4.17;24.58
70437;BME280;57877;39.750;-104.894;2023-02-28T03:34:58;82843.01;;;4.54;23.92
70437;BME280;57877;39.750;-104.894;2023-02-28T03:37:20;82847.35;;;4.54;24.25
70437;BME280;57877;39.750;-104.894;2023-02-28T03:39:46;82844.12;;;5.06;23.81
70437;BME280;57877;39.750;-104.894;2023-02-28T03:42:12;82840.58;;;4.96;23.79
70437;BME280;57877;39.750;-104.894;2023-02-28T03:47:02;82838.87;;;4.12;24.50
70437;BME280;57877;39.750;-104.894;2023-02-28T03:54:17;82848.43;;;3.88;24.91
70437;BME280;57877;39.750;-104.894;2023-02-28T03:56:48;82845.31;;;4.25;24.92
70437;BME280;57877;39.750;-104.894;2023-02-28T03:59:07;82842.59;;;4.08;24.96
70437;BME280;57877;39.750;-104.894;2023-02-28T04:01:35;82843.00;;;4.06;25.05
70437;BME280;57877;39.750;-104.894;2023-02-28T04:03:54;82832.31;;;3.94;25.17
70437;BME280;57877;39.750;-104.894;2023-02-28T04:06:21;82819.21;;;3.83;25.36
70437;BME280;57877;39.750;-104.894;2023-02-28T04:08:45;82808.08;;;3.87;25.68
70437;BME280;57877;39.750;-104.894;2023-02-28T04:11:18;82796.61;;;3.18;25.95
70437;BME280;57877;39.750;-104.894;2023-02-28T04:13:34;82786.94;;;3.70;25.81
70437;BME280;57877;39.750;-104.894;2023-02-28T04:15:59;82782.19;;;3.69;25.62
70437;BME280;57877;39.750;-104.894;2023-02-28T04:18:24;82784.54;;;3.49;25.24
70437;BME280;57877;39.750;-104.894;2023-02-28T04:20:49;82780.00;;;3.48;25.57
70437;BME280;57877;39.750;-104.894;2023-02-28T04:23:14;82776.37;;;3.33;25.67
70437;BME280;57877;39.750;-104.894;2023-02-28T04:25:40;82773.66;;;3.79;25.20
70437;BME280;57877;39.750;-104.894;2023-02-28T04:28:05;82773.98;;;3.51;24.96
70437;BME280;57877;39.750;-104.894;2023-02-28T04:30:30;82770.51;;;3.46;24.76
70437;BME280;57877;39.750;-104.894;2023-02-28T04:32:54;82770.34;;;2.92;24.73
70437;BME280;57877;39.750;-104.894;2023-02-28T04:35:20;82765.15;;;2.27;25.12
70437;BME280;57877;39.750;-104.894;2023-02-28T04:37:49;82762.82;;;2.48;24.58
70437;BME280;57877;39.750;-104.894;2023-02-28T04:40:11;82759.59;;;2.85;24.59
70437;BME280;57877;39.750;-104.894;2023-02-28T04:45:00;82753.06;;;1.73;25.74
70437;BME280;57877;39.750;-104.894;2023-02-28T04:47:25;82753.06;;;2.73;25.31
70437;BME280;57877;39.750;-104.894;2023-02-28T04:49:50;82751.54;;;2.15;25.64
70437;BME280;57877;39.750;-104.894;2023-02-28T04:52:15;82749.55;;;1.26;26.82
70437;BME280;57877;39.750;-104.894;2023-02-28T04:54:40;82750.51;;;1.87;26.42
70437;BME280;57877;39.750;-104.894;2023-02-28T04:59:30;82741.93;;;1.64;25.95
70437;BME280;57877;39.750;-104.894;2023-02-28T05:01:55;82738.62;;;2.17;25.43
70437;BME280;57877;39.750;-104.894;2023-02-28T05:04:20;82734.97;;;2.75;24.88
70437;BME280;57877;39.750;-104.894;2023-02-28T05:06:46;82730.67;;;2.35;24.88
70437;BME280;57877;39.750;-104.894;2023-02-28T05:09:10;82733.69;;;2.82;24.45
70437;BME280;57877;39.750;-104.894;2023-02-28T05:14:01;82735.37;;;3.00;24.16
70437;BME280;57877;39.750;-104.894;2023-02-28T05:16:27;82728.66;;;2.97;24.08
70437;BME280;57877;39.750;-104.894;2023-02-28T05:18:53;82723.22;;;2.39;24.77
70437;BME280;57877;39.750;-104.894;2023-02-28T05:21:23;82724.84;;;2.27;24.44
70437;BME280;57877;39.750;-104.894;2023-02-28T05:23:43;82725.86;;;2.05;24.48
70437;BME280;57877;39.750;-104.894;2023-02-28T05:26:08;82723.06;;;2.06;24.68
70437;BME280;57877;39.750;-104.894;2023-02-28T05:28:33;82713.68;;;2.09;24.31
70437;BME280;57877;39.750;-104.894;2023-02-28T05:30:58;82706.78;;;2.84;23.74
70437;BME280;57877;39.750;-104.894;2023-02-28T05:33:23;82707.47;;;2.19;24.21
70437;BME280;57877;39.750;-104.894;2023-02-28T05:35:48;82714.66;;;2.72;24.09
70437;BME280;57877;39.750;-104.894;2023-02-28T05:38:13;82716.20;;;1.89;24.16
70437;BME280;57877;39.750;-104.894;2023-02-28T05:43:05;82711.28;;;2.24;24.04
70437;BME280;57877;39.750;-104.894;2023-02-28T05:47:55;82702.88;;;1.71;24.60
70437;BME280;57877;39.750;-104.894;2023-02-28T05:50:20;82697.53;;;1.84;24.66
70437;BME280;57877;39.750;-104.894;2023-02-28T05:52:44;82695.75;;;2.25;24.32
70437;BME280;57877;39.750;-104.894;2023-02-28T05:55:10;82706.85;;;2.25;24.43
70437;BME280;57877;39.750;-104.894;2023-02-28T05:57:34;82701.83;;;2.43;24.27
70437;BME280;57877;39.750;-104.894;2023-02-28T06:00:00;82696.27;;;2.21;24.24
70437;BME280;57877;39.750;-104.894;2023-02-28T06:02:25;82694.14;;;2.38;23.83
70437;BME280;57877;39.750;-104.894;2023-02-28T06:04:50;82697.81;;;2.39;23.63
70437;BME280;57877;39.750;-104.894;2023-02-28T06:07:15;82697.21;;;2.56;23.42
70437;BME280;57877;39.750;-104.894;2023-02-28T06:09:40;82700.93;;;2.71;23.30
70437;BME280;57877;39.750;-104.894;2023-02-28T06:12:06;82703.07;;;2.75;23.22
70437;BME280;57877;39.750;-104.894;2023-02-28T06:14:30;82702.82;;;2.48;23.23
70437;BME280;57877;39.750;-104.894;2023-02-28T06:16:55;82702.82;;;2.58;23.25
70437;BME280;57877;39.750;-104.894;2023-02-28T06:19:20;82700.72;;;2.08;23.50
70437;BME280;57877;39.750;-104.894;2023-02-28T06:21:45;82697.63;;;2.43;23.50
70437;BME280;57877;39.750;-104.894;2023-02-28T06:24:10;82696.52;;;2.41;23.64
70437;BME280;57877;39.750;-104.894;2023-02-28T06:26:35;82688.15;;;2.30;23.70
70437;BME280;57877;39.750;-104.894;2023-02-28T06:29:00;82680.82;;;2.10;23.90
70437;BME280;57877;39.750;-104.894;2023-02-28T06:31:25;82680.53;;;2.16;23.91
70437;BME280;57877;39.750;-104.894;2023-02-28T06:33:50;82674.52;;;2.45;24.13
70437;BME280;57877;39.750;-104.894;2023-02-28T06:36:16;82676.51;;;2.35;24.18
70437;BME280;57877;39.750;-104.894;2023-02-28T06:38:41;82676.49;;;2.34;24.22
70437;BME280;57877;39.750;-104.894;2023-02-28T06:41:06;82673.21;;;2.23;24.02
70437;BME280;57877;39.750;-104.894;2023-02-28T06:43:33;82671.07;;;2.41;23.94
70437;BME280;57877;39.750;-104.894;2023-02-28T06:45:56;82671.56;;;2.04;23.87
70437;BME280;57877;39.750;-104.894;2023-02-28T06:48:21;82676.69;;;1.76;24.08
70437;BME280;57877;39.750;-104.894;2023-02-28T06:50:46;82685.32;;;1.85;24.79
70437;BME280;57877;39.750;-104.894;2023-02-28T06:53:11;82682.61;;;1.45;25.73
70437;BME280;57877;39.750;-104.894;2023-02-28T06:55:38;82682.98;;;1.84;25.64
70437;BME280;57877;39.750;-104.894;2023-02-28T06:58:01;82684.91;;;1.70;26.09
70437;BME280;57877;39.750;-104.894;2023-02-28T07:00:26;82689.21;;;1.47;25.96
70437;BME280;57877;39.750;-104.894;2023-02-28T07:02:51;82685.71;;;1.57;26.55
70437;BME280;57877;39.750;-104.894;2023-02-28T07:05:17;82686.52;;;1.60;26.57
70437;BME280;57877;39.750;-104.894;2023-02-28T07:07:42;82682.28;;;1.59;26.80
70437;BME280;57877;39.750;-104.894;2023-02-28T07:10:07;82683.32;;;1.24;27.14
70437;BME280;57877;39.750;-104.894;2023-02-28T07:12:32;82685.14;;;0.13;28.33
70437;BME280;57877;39.750;-104.894;2023-02-28T07:14:57;82685.61;;;-0.51;29.24
70437;BME280;57877;39.750;-104.894;2023-02-28T07:17:22;82675.60;;;-0.01;26.53
70437;BME280;57877;39.750;-104.894;2023-02-28T07:19:47;82666.71;;;0.07;24.95
70437;BME280;57877;39.750;-104.894;2023-02-28T07:22:12;82657.03;;;-0.56;24.83
70437;BME280;57877;39.750;-104.894;2023-02-28T07:24:37;82655.57;;;0.21;24.25
70437;BME280;57877;39.750;-104.894;2023-02-28T07:27:02;82648.07;;;0.07;23.91
70437;BME280;57877;39.750;-104.894;2023-02-28T07:29:28;82643.60;;;0.24;23.33
70437;BME280;57877;39.750;-104.894;2023-02-28T07:31:53;82642.03;;;-0.03;22.98
70437;BME280;57877;39.750;-104.894;2023-02-28T07:34:18;82638.59;;;0.59;22.31
70437;BME280;57877;39.750;-104.894;2023-02-28T07:36:43;82635.90;;;1.28;21.80
70437;BME280;57877;39.750;-104.894;2023-02-28T07:39:08;82636.36;;;1.73;21.35
70437;BME280;57877;39.750;-104.894;2023-02-28T07:41:33;82626.51;;;1.77;21.06
70437;BME280;57877;39.750;-104.894;2023-02-28T07:43:58;82623.24;;;1.90;20.63
70437;BME280;57877;39.750;-104.894;2023-02-28T07:46:23;82620.21;;;2.08;20.39
70437;BME280;57877;39.750;-104.894;2023-02-28T07:48:49;82622.26;;;2.19;20.11
70437;BME280;57877;39.750;-104.894;2023-02-28T07:51:13;82619.38;;;2.30;19.83
70437;BME280;57877;39.750;-104.894;2023-02-28T07:53:39;82616.58;;;1.82;19.79
70437;BME280;57877;39.750;-104.894;2023-02-28T07:56:04;82610.17;;;2.16;19.65
70437;BME280;57877;39.750;-104.894;2023-02-28T07:58:30;82603.31;;;2.31;19.45
70437;BME280;57877;39.750;-104.894;2023-02-28T08:00:54;82601.30;;;1.86;19.44
70437;BME280;57877;39.750;-104.894;2023-02-28T08:03:20;82594.50;;;1.71;19.57
70437;BME280;57877;39.750;-104.894;2023-02-28T08:05:44;82594.51;;;2.17;19.47
70437;BME280;57877;39.750;-104.894;2023-02-28T08:08:09;82591.98;;;2.02;19.40
70437;BME280;57877;39.750;-104.894;2023-02-28T08:10:34;82590.86;;;1.76;19.62
70437;BME280;57877;39.750;-104.894;2023-02-28T08:12:59;82582.72;;;2.04;19.43
70437;BME280;57877;39.750;-104.894;2023-02-28T08:15:24;82573.57;;;2.29;19.29
70437;BME280;57877;39.750;-104.894;2023-02-28T08:17:49;82574.50;;;2.21;19.22
70437;BME280;57877;39.750;-104.894;2023-02-28T08:20:15;82563.98;;;2.43;19.12
70437;BME280;57877;39.750;-104.894;2023-02-28T08:22:40;82572.05;;;2.43;19.08
70437;BME280;57877;39.750;-104.894;2023-02-28T08:25:06;82574.01;;;2.05;19.28
70437;BME280;57877;39.750;-104.894;2023-02-28T08:27:30;82562.28;;;2.19;19.25
70437;BME280;57877;39.750;-104.894;2023-02-28T08:29:55;82555.22;;;1.90;19.48
70437;BME280;57877;39.750;-104.894;2023-02-28T08:32:20;82547.45;;;2.15;19.08
70437;BME280;57877;39.750;-104.894;2023-02-28T08:34:45;82541.31;;;2.47;18.96
70437;BME280;57877;39.750;-104.894;2023-02-28T08:37:11;82528.46;;;2.50;19.01
70437;BME280;57877;39.750;-104.894;2023-02-28T08:39:36;82522.15;;;2.02;19.37
70437;BME280;57877;39.750;-104.894;2023-02-28T08:42:01;82534.03;;;2.39;19.03
70437;BME280;57877;39.750;-104.894;2023-02-28T08:44:26;82519.72;;;1.27;19.51
70437;BME280;57877;39.750;-104.894;2023-02-28T08:46:51;82524.14;;;1.68;19.58
70437;BME280;57877;39.750;-104.894;2023-02-28T08:49:16;82520.98;;;1.11;19.97
70437;BME280;57877;39.750;-104.894;2023-02-28T08:51:41;82514.94;;;1.34;20.21
70437;BME280;57877;39.750;-104.894;2023-02-28T08:54:07;82511.24;;;0.55;20.67
70437;BME280;57877;39.750;-104.894;2023-02-28T08:56:32;82505.83;;;0.94;20.86
70437;BME280;57877;39.750;-104.894;2023-02-28T08:58:57;82502.68;;;0.71;21.02
70437;BME280;57877;39.750;-104.894;2023-02-28T09:01:23;82499.88;;;0.89;20.88
70437;BME280;57877;39.750;-104.894;2023-02-28T09:03:48;82491.86;;;0.84;21.07
70437;BME280;57877;39.750;-104.894;2023-02-28T09:06:12;82482.63;;;0.67;21.23
70437;BME280;57877;39.750;-104.894;2023-02-28T09:08:37;82474.17;;;0.88;21.34
70437;BME280;57877;39.750;-104.894;2023-02-28T09:11:03;82470.00;;;0.62;21.30
70437;BME280;57877;39.750;-104.894;2023-02-28T09:13:28;82464.04;;;0.38;21.70
70437;BME280;57877;39.750;-104.894;2023-02-28T09:15:53;82462.16;;;0.90;21.35
70437;BME280;57877;39.750;-104.894;2023-02-28T09:18:18;82460.29;;;0.53;21.61
70437;BME280;57877;39.750;-104.894;2023-02-28T09:20:43;82456.45;;;0.52;21.75
70437;BME280;57877;39.750;-104.894;2023-02-28T09:23:10;82450.77;;;0.57;21.66
70437;BME280;57877;39.750;-104.894;2023-02-28T09:25:33;82446.73;;;0.27;21.87
70437;BME280;57877;39.750;-104.894;2023-02-28T09:27:58;82447.74;;;0.96;21.26
70437;BME280;57877;39.750;-104.894;2023-02-28T09:30:23;82443.93;;;0.33;21.82
70437;BME280;57877;39.750;-104.894;2023-02-28T09:32:48;82441.99;;;0.60;21.45
70437;BME280;57877;39.750;-104.894;2023-02-28T09:35:14;82438.35;;;0.70;21.44
70437;BME280;57877;39.750;-104.894;2023-02-28T09:37:38;82434.77;;;0.79;21.44
70437;BME280;57877;39.750;-104.894;2023-02-28T09:40:05;82430.80;;;0.46;21.64
70437;BME280;57877;39.750;-104.894;2023-02-28T09:42:32;82415.70;;;0.72;21.83
70437;BME280;57877;39.750;-104.894;2023-02-28T09:44:54;82406.49;;;0.68;21.58
70437;BME280;57877;39.750;-104.894;2023-02-28T09:47:27;82402.05;;;0.81;21.53
70437;BME280;57877;39.750;-104.894;2023-02-28T09:49:47;82406.60;;;0.64;21.62
70437;BME280;57877;39.750;-104.894;2023-02-28T09:52:12;82407.16;;;0.64;21.74
70437;BME280;57877;39.750;-104.894;2023-02-28T09:54:35;82408.64;;;0.92;21.52
70437;BME280;57877;39.750;-104.894;2023-02-28T09:57:04;82401.92;;;0.71;21.55
70437;BME280;57877;39.750;-104.894;2023-02-28T09:59:36;82399.62;;;1.35;21.18
70437;BME280;57877;39.750;-104.894;2023-02-28T10:01:54;82392.22;;;1.28;21.23
70437;BME280;57877;39.750;-104.894;2023-02-28T10:04:22;82392.43;;;1.21;21.22
70437;BME280;57877;39.750;-104.894;2023-02-28T10:06:44;82388.18;;;1.10;21.40
70437;BME280;57877;39.750;-104.894;2023-02-28T10:09:11;82391.46;;;1.03;21.64
70437;BME280;57877;39.750;-104.894;2023-02-28T10:11:33;82389.78;;;0.92;21.61
70437;BME280;57877;39.750;-104.894;2023-02-28T10:14:00;82377.95;;;1.37;21.25
70437;BME280;57877;39.750;-104.894;2023-02-28T10:16:25;82377.09;;;1.02;21.59
70437;BME280;57877;39.750;-104.894;2023-02-28T10:18:48;82379.23;;;1.47;21.27
70437;BME280;57877;39.750;-104.894;2023-02-28T10:21:19;82377.40;;;0.71;21.95
70437;BME280;57877;39.750;-104.894;2023-02-28T10:23:37;82365.68;;;1.07;21.50
70437;BME280;57877;39.750;-104.894;2023-02-28T10:26:09;82356.01;;;1.00;21.69
70437;BME280;57877;39.750;-104.894;2023-02-28T10:28:29;82360.93;;;1.16;21.71
70437;BME280;57877;39.750;-104.894;2023-02-28T10:30:53;82371.06;;;0.87;21.90
70437;BME280;57877;39.750;-104.894;2023-02-28T10:33:22;82367.84;;;0.91;21.99
70437;BME280;57877;39.750;-104.894;2023-02-28T10:35:42;82362.78;;;0.43;22.21
70437;BME280;57877;39.750;-104.894;2023-02-28T10:38:15;82358.95;;;1.12;21.82
70437;BME280;57877;39.750;-104.894;2023-02-28T10:40:34;82359.45;;;0.78;22.45
70437;BME280;57877;39.750;-104.894;2023-02-28T10:42:59;82354.15;;;0.49;22.56
70437;BME280;57877;39.750;-104.894;2023-02-28T10:45:23;82353.44;;;0.27;22.76
70437;BME280;57877;39.750;-104.894;2023-02-28T10:47:55;82349.25;;;0.37;22.64
70437;BME280;57877;39.750;-104.894;2023-02-28T10:52:40;82348.17;;;0.42;23.15
70437;BME280;57877;39.750;-104.894;2023-02-28T10:57:31;82332.28;;;0.24;22.95
70437;BME280;57877;39.750;-104.894;2023-02-28T11:00:05;82329.12;;;0.09;23.32
70437;BME280;57877;39.750;-104.894;2023-02-28T11:04:43;82333.39;;;0.09;23.04
70437;BME280;57877;39.750;-104.894;2023-02-28T11:07:17;82337.85;;;0.01;23.28
70437;BME280;57877;39.750;-104.894;2023-02-28T11:09:35;82342.59;;;0.73;22.67
70437;BME280;57877;39.750;-104.894;2023-02-28T11:11:59;82344.81;;;-0.13;22.79
70437;BME280;57877;39.750;-104.894;2023-02-28T11:14:27;82339.47;;;0.58;22.38
70437;BME280;57877;39.750;-104.894;2023-02-28T11:16:50;82334.18;;;0.24;22.65
70437;BME280;57877;39.750;-104.894;2023-02-28T11:19:20;82334.95;;;0.83;22.32
70437;BME280;57877;39.750;-104.894;2023-02-28T11:21:39;82338.55;;;0.54;22.57
70437;BME280;57877;39.750;-104.894;2023-02-28T11:24:12;82347.71;;;0.31;22.80
70437;BME280;57877;39.750;-104.894;2023-02-28T11:26:38;82351.99;;;0.57;23.03
70437;BME280;57877;39.750;-104.894;2023-02-28T11:29:08;82339.64;;;0.01;23.26
70437;BME280;57877;39.750;-104.894;2023-02-28T11:31:20;82346.83;;;0.88;22.68
70437;BME280;57877;39.750;-104.894;2023-02-28T11:33:47;82358.18;;;0.36;22.92
70437;BME280;57877;39.750;-104.894;2023-02-28T11:36:14;82347.54;;;-0.09;23.33
70437;BME280;57877;39.750;-104.894;2023-02-28T11:38:36;82350.71;;;0.28;23.31
70437;BME280;57877;39.750;-104.894;2023-02-28T11:41:12;82351.10;;;-0.04;23.89
70437;BME280;57877;39.750;-104.894;2023-02-28T11:43:34;82352.18;;;0.70;23.26
70437;BME280;57877;39.750;-104.894;2023-02-28T11:46:03;82347.28;;;0.37;23.17
70437;BME280;57877;39.750;-104.894;2023-02-28T11:48:22;82345.44;;;0.62;23.10
70437;BME280;57877;39.750;-104.894;2023-02-28T11:50:48;82343.63;;;0.62;23.15
70437;BME280;57877;39.750;-104.894;2023-02-28T11:53:14;82339.86;;;0.26;23.42
70437;BME280;57877;39.750;-104.894;2023-02-28T11:55:35;82335.50;;;0.27;23.62
70437;BME280;57877;39.750;-104.894;2023-02-28T11:58:07;82329.83;;;0.75;23.23
70437;BME280;57877;39.750;-104.894;2023-02-28T12:00:30;82323.67;;;0.59;22.80
70437;BME280;57877;39.750;-104.894;2023-02-28T12:02:58;82324.83;;;0.29;23.17
70437;BME280;57877;39.750;-104.894;2023-02-28T12:05:21;82332.50;;;0.08;23.48
70437;BME280;57877;39.750;-104.894;2023-02-28T12:07:45;82333.69;;;0.83;22.92
70437;BME280;57877;39.750;-104.894;2023-02-28T12:10:10;82330.07;;;0.35;23.03
70437;BME280;57877;39.750;-104.894;2023-02-28T12:12:38;82335.82;;;0.39;22.94
70437;BME280;57877;39.750;-104.894;2023-02-28T12:17:29;82327.75;;;0.57;22.68
70437;BME280;57877;39.750;-104.894;2023-02-28T12:19:48;82319.94;;;0.55;22.57
70437;BME280;57877;39.750;-104.894;2023-02-28T12:26:59;82313.82;;;1.03;22.08
70437;BME280;57877;39.750;-104.894;2023-02-28T12:29:25;82309.68;;;1.41;21.79
70437;BME280;57877;39.750;-104.894;2023-02-28T12:31:51;82308.05;;;1.29;21.59
70437;BME280;57877;39.750;-104.894;2023-02-28T12:34:17;82307.84;;;1.13;21.67
70437;BME280;57877;39.750;-104.894;2023-02-28T12:36:44;82313.78;;;1.03;21.83
70437;BME280;57877;39.750;-104.894;2023-02-28T12:39:10;82308.54;;;0.61;22.07
70437;BME280;57877;39.750;-104.894;2023-02-28T12:41:34;82303.71;;;0.91;21.91
70437;BME280;57877;39.750;-104.894;2023-02-28T12:44:01;82302.29;;;0.75;21.74
70437;BME280;57877;39.750;-104.894;2023-02-28T12:46:22;82300.46;;;1.07;21.80
70437;BME280;57877;39.750;-104.894;2023-02-28T12:48:48;82299.27;;;1.05;21.75
70437;BME280;57877;39.750;-104.894;2023-02-28T12:51:10;82295.90;;;0.76;22.02
70437;BME280;57877;39.750;-104.894;2023-02-28T12:53:43;82286.96;;;1.01;22.02
70437;BME280;57877;39.750;-104.894;2023-02-28T12:56:09;82289.39;;;0.57;22.13
70437;BME280;57877;39.750;-104.894;2023-02-28T12:58:29;82296.94;;;0.66;21.94
70437;BME280;57877;39.750;-104.894;2023-02-28T13:05:53;82281.94;;;0.11;22.35
70437;BME280;57877;39.750;-104.894;2023-02-28T13:08:15;82276.52;;;0.11;22.48
70437;BME280;57877;39.750;-104.894;2023-02-28T13:10:39;82272.95;;;0.12;22.46
70437;BME280;57877;39.750;-104.894;2023-02-28T13:12:56;82262.04;;;0.81;22.43
70437;BME280;57877;39.750;-104.894;2023-02-28T13:15:24;82262.88;;;-0.51;23.13
70437;BME280;57877;39.750;-104.894;2023-02-28T13:17:48;82261.54;;;0.48;22.51
70437;BME280;57877;39.750;-104.894;2023-02-28T13:20:17;82256.69;;;0.48;22.70
70437;BME280;57877;39.750;-104.894;2023-02-28T13:22:40;82248.39;;;0.61;22.72
70437;BME280;57877;39.750;-104.894;2023-02-28T13:25:02;82244.50;;;0.42;22.72
70437;BME280;57877;39.750;-104.894;2023-02-28T13:27:33;82248.46;;;0.29;22.81
70437;BME280;57877;39.750;-104.894;2023-02-28T13:29:52;82256.98;;;0.56;22.80
70437;BME280;57877;39.750;-104.894;2023-02-28T13:35:11;82262.07;;;0.83;23.03
70437;BME280;57877;39.750;-104.894;2023-02-28T13:41:57;82243.02;;;1.12;22.65
70437;BME280;57877;39.750;-104.894;2023-02-28T13:44:23;82252.21;;;0.99;23.18
70437;BME280;57877;39.750;-104.894;2023-02-28T13:49:20;82254.18;;;1.28;22.83
70437;BME280;57877;39.750;-104.894;2023-02-28T13:51:43;82253.81;;;1.41;22.81